CMB863 Details

Departure: Ramstein Air Force Base (ETAR)
Arrival: Bahrain International Airport (OBBI) at N/A
Route: RINEX RIDAR UZ738 UNKEN INVED M747 CND L5 ADINA L851 TBN W71 ERZ A4 VAN OTIDO UM688 DERNU UM688 AD UP975 IMDOX LOPOL L443 RAMSI LADNA
Notes: USTRANSCOM CONTRACT FLIGHT


Current Weather Information
ETAR 251127Z AUTO 16004KT 9999 CLR 29/16 A3009 RMK AO2 DZB16E17RAB17E26 SLP183 $
OBBI 251130Z 01011KT CAVOK 37/28 Q1001 NOSIG